Latest Weather Observations for Mount Crawford

IDS60801

Issued at 11:31 pm CST Saturday 25 April 2015 (issued every 30 minutes, with the page automatically refreshed every 10 minutes)

About weather observations | Map of weather stations | Latest weather observations for SA | Other Formats
Station Details ID: 023878 Name: MT CRAWFORD AWS Lat: -34.73 Lon: 138.93 Height: 525.0 m
Data from the previous 72 hours. | See also: Recent months at Mount Crawford
Date/Time
CST
Temp
°C
App
Temp
°C
Dew
Point
Rel
Hum
%
Delta-T
°C
Wind Press
QNH
hPa
Press
MSL
hPa
Rain
since 9 am
mm
Dir
 
Spd
km/h
Gust
km/h
Spd
kts
Gust
kts
25/11:30pm 8.8 6.1 8.8 100 0.0 SW 13 19 7 10 1020.1 1019.2 1.0
25/11:00pm 8.8 5.7 8.7 99 0.0 SSW 15 24 8 13 1020.1 1019.2 0.8
25/10:30pm 8.8 6.0 8.7 99 0.0 SW 13 19 7 10 1020.0 1019.1 0.8
25/10:00pm 8.9 4.1 8.8 99 0.1 SSW 24 35 13 19 1019.7 1018.7 0.8
25/09:30pm 9.0 5.0 8.9 99 0.1 SSW 20 32 11 17 1019.4 1018.4 0.8
25/09:00pm 9.1 4.7 9.0 99 0.1 SSW 22 33 12 18 1019.4 1018.4 0.8
25/08:30pm 9.1 5.1 9.0 99 0.1 SSW 20 30 11 16 1019.2 1018.2 0.8
25/08:00pm 9.2 4.5 9.1 99 0.1 SSW 24 35 13 19 1018.8 1017.9 0.8
25/07:30pm 9.6 5.0 9.5 99 0.1 SSW 24 37 13 20 1018.4 1017.5 0.6
25/07:00pm 9.6 4.6 9.5 99 0.1 SSW 26 39 14 21 1017.7 1016.7 0.6
25/06:30pm 9.7 5.5 9.6 99 0.1 S 22 32 12 17 1017.5 1016.5 0.6
25/06:00pm 9.8 4.8 9.7 99 0.1 S 26 41 14 22 1016.7 1015.8 0.6
25/05:30pm 10.0 5.5 9.9 99 0.1 SSW 24 37 13 20 1016.2 1015.2 0.6
25/05:00pm 10.6 5.3 10.0 96 0.3 SSW 28 48 15 26 1015.7 1014.7 0.4
25/04:59pm 10.6 5.3 10.0 96 0.3 SSW 28 48 15 26 1015.6 1014.6 0.4
25/04:30pm 10.9 5.8 10.6 98 0.2 SSW 28 43 15 23 1015.3 1014.3 0.4
25/04:11pm 10.7 5.2 10.5 99 0.1 SSW 30 48 16 26 1014.9 1013.9 0.4
25/04:00pm 10.8 4.9 10.6 99 0.1 SSW 32 46 17 25 1014.6 1013.6 0.4
25/03:55pm 10.8 5.7 10.6 99 0.1 SSW 28 46 15 25 1014.5 1013.5 0.4
25/03:30pm 10.8 8.2 10.8 100 0.0 WSW 15 24 8 13 1014.4 1013.4 0.4
25/03:00pm 10.4 7.3 10.4 100 0.0 WSW 17 24 9 13 1014.2 1013.2 0.4
25/02:30pm 10.2 7.0 10.0 99 0.1 WSW 17 28 9 15 1014.0 1013.0 0.2
25/02:00pm 9.9 6.1 9.8 99 0.1 WSW 20 30 11 16 1013.7 1012.7 0.2
25/01:30pm 11.6 6.8 9.0 84 1.3 WSW 24 41 13 22 1013.3 1012.2 0.0
25/01:00pm 11.6 7.7 8.6 82 1.5 SW 19 28 10 15 1013.4 1012.4 0.0
25/12:30pm 11.2 6.3 8.4 83 1.4 WSW 24 35 13 19 1013.4 1012.4 0.0
25/12:00pm 10.6 5.7 8.5 87 1.1 WSW 24 35 13 19 1013.6 1012.6 0.0
25/11:30am 10.8 7.0 7.7 81 1.5 WSW 17 30 9 16 1013.5 1012.5 0.0
25/11:00am 11.9 8.9 9.3 84 1.3 WSW 15 28 8 15 1013.6 1012.6 0.0
25/10:30am 10.2 6.0 7.6 84 1.3 SW 19 32 10 17 1013.3 1012.2 0.0
25/10:00am 10.4 6.2 7.5 82 1.4 SSW 19 32 10 17 1012.9 1011.9 0.0
25/09:30am 9.8 5.5 7.7 87 1.0 S 20 33 11 18 1012.5 1011.5 0.0
25/09:00am 8.3 3.9 7.4 94 0.4 SSW 20 32 11 17 1012.3 1011.3 13.6
25/08:30am 7.7 3.4 6.8 94 0.4 S 19 32 10 17 1011.3 1010.2 13.6
25/08:00am 6.9 2.3 6.3 96 0.3 SSE 20 30 11 16 1010.2 1009.2 13.6
25/07:30am 6.1 0.2 6.0 99 0.0 S 26 39 14 21 1009.5 1008.4 13.4
25/07:00am 5.7 -0.2 5.6 99 0.0 S 26 48 14 26 1008.4 1007.4 13.4
25/06:39am 6.0 -0.6 6.0 100 0.0 S 30 48 16 26 1007.7 1006.6 13.4
25/06:30am 5.9 -0.7 5.9 100 0.0 S 30 44 16 24 1007.3 1006.2 13.4
25/06:00am 6.0 0.5 6.0 100 0.0 S 24 39 13 21 1006.4 1005.3 13.4
25/05:30am 6.2 0.0 6.2 100 0.0 SSW 28 37 15 20 1005.4 1004.3 13.4
25/05:00am 6.0 -0.6 6.0 100 0.0 S 30 43 16 23 1004.6 1003.5 13.4
25/04:30am 5.9 0.4 5.9 100 0.0 S 24 35 13 19 1003.9 1002.8 13.4
25/04:00am 6.3 1.7 6.3 100 0.0 SSE 20 32 11 17 1003.3 1002.1 13.4
25/03:30am 6.6 2.6 6.6 100 0.0 SSE 17 22 9 12 1002.3 1001.2 13.4
25/03:00am 6.7 3.1 6.7 100 0.0 SSW 15 24 8 13 1001.6 1000.4 13.0
25/02:30am 7.1 2.8 7.1 100 0.0 WSW 19 28 10 15 1000.7 999.6 13.0
25/02:00am 7.0 1.4 7.0 100 0.0 WNW 26 37 14 20 1000.2 999.1 13.0
25/01:30am 6.4 2.0 6.4 100 0.0 N 19 28 10 15 1000.5 999.4 12.2
25/01:00am 6.3 1.3 6.3 100 0.0 NNW 22 30 12 16 1001.0 999.8 10.6
25/12:30am 6.1 1.0 6.1 100 0.0 NNW 22 30 12 16 1001.4 1000.2 10.6
25/12:00am 5.5 -0.1 5.5 100 0.0 NNW 24 33 13 18 1001.7 1000.5 10.6
 
Date/Time
CST
Temp
°C
App
Temp
°C
Dew
Point
Rel
Hum
%
Delta-T
°C
Wind Press
QNH
hPa
Press
MSL
hPa
Rain
since 9 am
mm
Dir
 
Spd
km/h
Gust
km/h
Spd
kts
Gust
kts
24/11:30pm 5.6 0.0 5.6 100 0.0 NNW 24 41 13 22 1002.2 1001.1 10.4
24/11:00pm 5.9 -1.1 5.9 100 0.0 NNW 32 43 17 23 1002.5 1001.4 10.4
24/10:30pm 6.0 0.9 6.0 100 0.0 NNW 22 35 12 19 1003.2 1002.0 10.2
24/10:00pm 6.7 0.6 6.7 100 0.0 NNW 28 43 15 23 1003.6 1002.5 10.2
24/09:35pm 6.8 0.7 6.8 100 0.0 NW 28 46 15 25 1004.0 1002.9 10.2
24/09:30pm 6.6 -0.3 6.6 100 0.0 NW 32 46 17 25 1004.0 1002.9 10.0
24/09:00pm 6.9 -0.1 6.9 100 0.0 NW 33 61 18 33 1004.1 1003.0 7.4
24/08:57pm 6.8 0.7 6.8 100 0.0 NW 28 61 15 33 1004.3 1003.2 7.0
24/08:30pm 7.0 1.3 6.9 99 0.0 NNW 26 33 14 18 1005.0 1003.8 4.0
24/08:00pm 7.1 1.8 7.0 99 0.0 NW 24 33 13 18 1005.6 1004.5 3.6
24/07:30pm 6.9 1.6 6.8 99 0.0 NW 24 35 13 19 1005.9 1004.8 3.6
24/07:05pm 7.2 1.1 6.5 95 0.3 NW 28 46 15 25 1006.0 1004.9 3.6
24/07:00pm 7.5 2.1 6.3 92 0.6 NW 24 39 13 21 1006.0 1004.9 3.6
24/06:30pm 7.8 2.8 6.6 92 0.6 NW 22 33 12 18 1006.3 1005.2 3.6
24/06:00pm 8.2 1.9 5.7 84 1.2 WNW 28 46 15 25 1006.3 1005.2 3.6
24/05:30pm 9.0 1.1 4.6 74 2.0 W 35 57 19 31 1006.2 1005.1 3.6
24/05:00pm 9.5 1.9 6.0 79 1.7 W 35 54 19 29 1005.8 1004.7 3.6
24/04:30pm 10.3 1.7 4.9 69 2.5 W 39 63 21 34 1005.6 1004.5 3.6
24/04:00pm 10.6 3.5 6.6 76 1.9 W 33 54 18 29 1005.9 1004.8 3.6
24/03:32pm 10.2 0.9 4.8 69 2.5 W 43 63 23 34 1005.6 1004.5 3.6
24/03:30pm 10.3 1.4 5.3 71 2.4 W 41 57 22 31 1005.7 1004.6 3.6
24/03:03pm 10.9 4.1 7.0 77 1.9 W 32 59 17 32 1005.9 1004.8 3.6
24/03:00pm 10.5 4.4 8.1 85 1.2 W 30 46 16 25 1006.0 1004.9 3.6
24/02:58pm 10.1 3.4 7.2 82 1.4 W 32 50 17 27 1006.1 1005.0 3.6
24/02:30pm 10.6 2.9 7.3 80 1.6 W 37 54 20 29 1005.9 1004.8 3.6
24/02:23pm 9.8 3.2 7.6 86 1.1 W 32 50 17 27 1005.8 1004.7 3.6
24/02:00pm 9.2 2.8 9.2 100 0.0 W 33 48 18 26 1006.1 1005.0 3.4
24/01:39pm 9.4 3.6 9.4 100 0.0 W 30 54 16 29 1006.0 1004.9 3.4
24/01:30pm 9.3 3.5 9.3 100 0.0 W 30 39 16 21 1006.2 1005.1 3.4
24/01:00pm 8.6 2.6 8.6 100 0.0 W 30 41 16 22 1006.5 1005.4 3.0
24/12:30pm 8.5 1.9 8.5 100 0.0 W 33 48 18 26 1007.0 1005.9 2.6
24/12:20pm 8.5 2.8 8.5 100 0.0 W 28 48 15 26 1007.0 1005.9 2.4
24/12:00pm 8.3 2.6 8.3 100 0.0 W 28 43 15 23 1007.4 1006.3 2.2
24/11:30am 8.2 0.8 8.2 100 0.0 W 37 56 20 30 1007.4 1006.3 2.0
24/11:00am 8.6 0.9 8.6 100 0.0 WSW 39 63 21 34 1007.2 1006.1 1.6
24/10:39am 10.2 4.6 10.2 100 0.0 WNW 30 56 16 30 1006.3 1005.2 0.8
24/10:30am 11.3 6.4 11.3 100 0.0 NW 28 46 15 25 1006.5 1005.4 0.0
24/10:25am 11.2 6.3 11.2 100 0.0 NW 28 46 15 25 1006.7 1005.7 0.0
24/10:00am 10.6 4.7 10.6 100 0.0 NW 32 46 17 25 1007.2 1006.1 0.0
24/09:30am 10.4 4.5 10.4 100 0.0 NW 32 50 17 27 1007.4 1006.3 0.0
24/09:27am 10.3 4.4 10.3 100 0.0 NW 32 50 17 27 1007.4 1006.3 0.0
24/09:00am 10.4 3.9 10.4 100 0.0 NW 35 50 19 27 1007.6 1006.5 0.8
24/08:31am 10.6 4.7 10.6 100 0.0 NW 32 50 17 27 1007.7 1006.6 0.2
24/08:30am 10.5 4.6 10.5 100 0.0 NW 32 48 17 26 1007.7 1006.6 0.2
24/08:00am 10.6 6.6 10.6 100 0.0 NW 22 35 12 19 1007.8 1006.7 0.2
24/07:30am 10.2 6.5 10.2 100 0.0 NW 20 32 11 17 1007.9 1006.8 0.2
24/07:00am 10.2 6.1 10.2 100 0.0 WNW 22 30 12 16 1008.0 1006.9 0.0
24/06:30am 10.2 6.1 10.2 100 0.0 WNW 22 32 12 17 1008.2 1007.1 0.0
24/06:00am 10.1 5.6 10.1 100 0.0 WNW 24 35 13 19 1008.1 1007.0 0.0
24/05:30am 10.1 6.0 10.1 100 0.0 WNW 22 32 12 17 1008.2 1007.1 0.0
24/05:00am 10.3 6.6 10.3 100 0.0 WNW 20 28 11 15 1008.1 1007.0 0.0
24/04:30am 10.5 6.1 10.5 100 0.0 WNW 24 33 13 18 1008.5 1007.5 0.0
24/04:00am 10.6 5.9 10.6 100 0.0 W 26 35 14 19 1008.6 1007.6 0.0
24/03:30am 10.6 6.3 10.6 100 0.0 W 24 33 13 18 1008.8 1007.8 0.0
24/03:00am 10.8 5.8 10.8 100 0.0 W 28 37 15 20 1009.3 1008.2 0.0
24/02:30am 10.9 5.9 10.9 100 0.0 W 28 35 15 19 1009.5 1008.4 0.0
24/02:00am 10.9 7.0 10.9 100 0.0 WNW 22 30 12 16 1010.0 1008.9 0.0
24/01:30am 10.9 8.4 10.9 100 0.0 WNW 15 20 8 11 1010.5 1009.5 0.0
24/01:00am 10.9 7.6 10.9 100 0.0 W 19 24 10 13 1010.7 1009.7 0.0
24/12:30am 11.0 8.5 11.0 100 0.0 W 15 20 8 11 1010.9 1009.9 0.0
24/12:00am 11.0 8.1 11.0 100 0.0 W 17 20 9 11 1011.5 1010.4 0.0
 
Date/Time
CST
Temp
°C
App
Temp
°C
Dew
Point
Rel
Hum
%
Delta-T
°C
Wind Press
QNH
hPa
Press
MSL
hPa
Rain
since 9 am
mm
Dir
 
Spd
km/h
Gust
km/h
Spd
kts
Gust
kts
23/11:30pm 11.0 8.5 11.0 100 0.0 W 15 22 8 12 1011.8 1010.8 0.0
23/11:00pm 10.9 8.4 10.9 100 0.0 W 15 20 8 11 1012.2 1011.2 0.0
23/10:30pm 10.9 9.1 10.9 100 0.0 WNW 11 15 6 8 1012.6 1011.6 0.0
23/10:00pm 10.8 9.9 10.6 99 0.1 W 6 7 3 4 1012.8 1011.8 0.0
23/09:30pm 10.7 8.4 10.5 99 0.1 W 13 17 7 9 1013.1 1012.0 0.0
23/09:00pm 11.0 8.7 10.5 97 0.3 W 13 17 7 9 1013.4 1012.4 0.0
23/08:30pm 11.1 8.4 10.3 95 0.4 W 15 22 8 12 1013.4 1012.4 0.0
23/08:00pm 11.3 8.9 10.0 92 0.7 W 13 19 7 10 1013.4 1012.4 0.0
23/07:30pm 11.4 9.0 10.0 91 0.7 W 13 20 7 11 1013.7 1012.7 0.0
23/07:00pm 11.4 8.8 9.5 88 1.0 W 13 19 7 10 1013.9 1012.9 0.0
23/06:30pm 11.6 9.4 9.5 87 1.1 W 11 15 6 8 1014.0 1013.0 0.0
23/06:00pm 12.1 9.6 9.7 85 1.3 W 13 17 7 9 1013.9 1012.9 0.0
23/05:30pm 12.6 9.4 9.8 83 1.5 W 17 24 9 13 1014.0 1013.0 0.0
23/05:00pm 13.2 9.8 10.6 84 1.4 W 19 26 10 14 1013.8 1012.8 0.0
23/04:30pm 13.9 10.2 9.5 75 2.3 W 19 28 10 15 1013.9 1012.9 0.0
23/04:00pm 14.6 11.3 9.4 71 2.7 W 17 24 9 13 1014.0 1013.0 0.0
23/03:30pm 14.7 12.2 9.7 72 2.7 WNW 13 19 7 10 1014.0 1013.0 0.0
23/03:00pm 14.8 12.1 10.4 75 2.4 W 15 20 8 11 1014.2 1013.2 0.0
23/02:30pm 14.8 12.5 10.4 75 2.4 W 13 17 7 9 1014.5 1013.5 0.0
23/02:00pm 14.9 13.2 11.1 78 2.1 NW 11 19 6 10 1014.9 1013.9 0.0
23/01:30pm 14.4 12.4 10.2 76 2.2 WNW 11 15 6 8 1015.3 1014.3 0.0
23/01:00pm 14.0 13.7 10.0 77 2.1 E 2 7 1 4 1015.3 1014.3 0.0
23/12:30pm 14.2 13.1 10.6 79 1.9 WSW 7 13 4 7 1015.9 1014.9 0.0
23/12:00pm 13.9 12.3 10.3 79 1.9 W 9 13 5 7 1016.6 1015.6 0.0
23/11:30am 13.1 11.8 10.1 82 1.6 WSW 7 9 4 5 1017.4 1016.4 0.0
23/11:00am 12.9 11.4 10.6 86 1.2 SSW 9 13 5 7 1017.7 1016.7 0.0
23/10:30am 13.0 13.2 10.7 86 1.2 CALM 0 4 0 2 1018.1 1017.1 0.0
23/10:00am 12.9 12.3 10.4 85 1.3 WSW 4 6 2 3 1018.4 1017.5 0.0
23/09:30am 12.4 11.5 10.8 90 0.9 ESE 6 7 3 4 1018.6 1017.7 0.0
23/09:00am 11.8 10.6 10.2 90 0.8 E 7 11 4 6 1018.9 1018.0 0.0
23/08:30am 11.0 9.3 9.9 93 0.6 E 9 13 5 7 1018.8 1017.9 0.0
23/08:00am 10.9 8.4 9.8 93 0.6 E 13 15 7 8 1018.8 1017.9 0.0
23/07:30am 10.4 7.9 9.6 95 0.4 ESE 13 17 7 9 1018.7 1017.8 0.0
23/07:00am 10.2 7.3 9.7 97 0.3 ESE 15 19 8 10 1018.6 1017.7 0.0
23/06:30am 10.1 7.2 9.8 98 0.2 ESE 15 19 8 10 1018.5 1017.6 0.0
23/06:00am 10.1 7.2 9.8 98 0.2 ESE 15 19 8 10 1018.6 1017.7 0.0
23/05:30am 10.0 6.8 9.9 99 0.1 ESE 17 19 9 10 1018.4 1017.5 0.0
23/05:00am 9.8 6.2 9.7 99 0.1 ESE 19 24 10 13 1018.4 1017.5 0.0
23/04:30am 9.8 6.0 9.7 99 0.1 ESE 20 24 11 13 1018.5 1017.6 0.0
23/04:00am 9.8 6.0 9.8 100 0.0 SE 20 24 11 13 1018.6 1017.7 0.0
23/03:30am 9.6 5.7 9.6 100 0.0 ESE 20 26 11 14 1018.7 1017.8 0.0
23/03:00am 9.8 6.0 9.8 100 0.0 SE 20 26 11 14 1018.9 1018.0 0.0
23/02:30am 9.9 5.7 9.9 100 0.0 SE 22 28 12 15 1019.4 1018.4 0.0
23/02:00am 10.1 5.6 10.1 100 0.0 SSE 24 32 13 17 1019.8 1018.8 0.0
23/01:30am 10.0 5.5 10.0 100 0.0 SE 24 32 13 17 1020.0 1019.1 0.0
23/01:00am 10.1 5.6 10.1 100 0.0 SE 24 33 13 18 1020.2 1019.3 0.0
23/12:30am 10.4 6.0 10.4 100 0.0 SE 24 35 13 19 1020.3 1019.4 0.0
23/12:00am 10.5 5.8 10.5 100 0.0 SE 26 35 14 19 1020.4 1019.5 0.0

Other Formats:

Comma delimited format used in spreadsheet applications
http://www.bom.gov.au/fwo/IDS60801/IDS60801.94678.axf

JavaScript Object Notation format (JSON) in row-major order
http://www.bom.gov.au/fwo/IDS60801/IDS60801.94678.json